Time;durP1;ratioP1;P1;durP2;ratioP2;P2;SDS_P1;SDS_P2;PMS_P1;PMS_P2;Temp;Humidity;BMP_temperature;BMP_pressure;BME280_temperature;BME280_humidity;BME280_pressure;Samples;Min_cycle;Max_cycle;Signal;HPM_P1;HPM_P2
2021/12/15 18:30:36;;;;;;;25.37;9.53;;;9.10;99.90;;;;;;6108432;22;2435339;-72
2021/12/15 18:33:07;;;;;;;34.72;13.93;;;9.10;99.90;;;;;;6189677;23;20005;-66
2021/12/15 18:35:35;;;;;;;34.42;12.95;;;9.10;99.90;;;;;;6216260;23;20011;-67
2021/12/15 18:38:03;;;;;;;44.60;17.63;;;9.10;99.90;;;;;;6215942;23;20004;-66
2021/12/15 18:40:33;;;;;;;19.13;8.65;;;9.10;99.90;;;;;;6215932;23;20083;-67
2021/12/15 18:43:03;;;;;;;38.58;15.85;;;9.10;99.90;;;;;;6185930;23;20041;-67
2021/12/15 18:45:31;;;;;;;26.67;12.10;;;9.10;99.90;;;;;;6186201;23;20088;-67
2021/12/15 18:47:57;;;;;;;19.17;9.90;;;9.10;99.90;;;;;;6185819;23;20115;-66
2021/12/15 18:50:29;;;;;;;21.10;8.95;;;9.00;99.90;;;;;;6185794;23;20015;-67
2021/12/15 18:52:56;;;;;;;31.15;9.20;;;9.10;99.90;;;;;;6185831;23;20005;-66
2021/12/15 18:55:24;;;;;;;33.30;12.27;;;9.00;99.90;;;;;;6185740;23;20009;-67
2021/12/15 18:57:51;;;;;;;24.27;9.02;;;9.10;99.90;;;;;;6185835;23;20335;-67
2021/12/15 19:00:32;;;;;;;23.38;10.02;;;9.10;99.90;;;;;;6185926;23;20011;-67
2021/12/15 19:03:00;;;;;;;25.98;9.43;;;9.10;99.90;;;;;;6185761;23;20021;-66
2021/12/15 19:05:27;;;;;;;15.05;7.53;;;9.10;99.90;;;;;;6185770;23;20059;-66
2021/12/15 19:07:54;;;;;;;23.77;8.88;;;9.10;99.90;;;;;;6186090;23;20426;-67
2021/12/15 19:10:23;;;;;;;32.42;11.90;;;9.10;99.90;;;;;;6185886;23;20005;-67
2021/12/15 19:12:51;;;;;;;31.00;12.77;;;9.10;99.90;;;;;;6185632;23;20016;-67
2021/12/15 19:15:18;;;;;;;24.88;12.32;;;9.10;99.90;;;;;;6185518;23;20461;-67
2021/12/15 19:17:45;;;;;;;39.17;11.40;;;9.00;99.90;;;;;;6185552;23;20391;-67
2021/12/15 19:20:20;;;;;;;18.55;8.40;;;9.10;99.90;;;;;;6185602;23;20339;-66
2021/12/15 19:22:48;;;;;;;17.08;7.88;;;9.00;99.90;;;;;;6186470;23;20020;-67
2021/12/15 19:25:15;;;;;;;17.85;8.48;;;9.00;99.90;;;;;;6187530;23;20004;-67
2021/12/15 19:27:42;;;;;;;19.58;8.32;;;9.00;99.90;;;;;;6187606;23;20009;-65
2021/12/15 19:30:17;;;;;;;26.48;10.40;;;9.00;99.90;;;;;;6187480;23;20005;-67
2021/12/15 19:32:45;;;;;;;22.13;10.75;;;9.00;99.90;;;;;;6187906;23;20027;-67
2021/12/15 19:35:13;;;;;;;26.80;11.43;;;8.90;99.90;;;;;;6187371;23;20009;-67
2021/12/15 19:37:49;;;;;;;37.50;14.60;;;8.90;99.90;;;;;;6187482;23;20009;-67
2021/12/15 19:40:23;;;;;;;38.65;14.65;;;8.80;99.90;;;;;;6136357;23;20043;-67
2021/12/15 19:42:51;;;;;;;32.10;11.85;;;8.80;99.90;;;;;;6187524;23;20001;-66
2021/12/15 19:45:20;;;;;;;26.23;11.50;;;8.80;99.90;;;;;;6187455;23;20075;-67
2021/12/15 19:47:47;;;;;;;33.78;13.02;;;8.80;99.90;;;;;;6187393;23;20005;-67
2021/12/15 19:50:17;;;;;;;23.67;10.88;;;8.80;99.90;;;;;;6187367;23;20076;-67
2021/12/15 19:52:50;;;;;;;33.20;11.45;;;8.70;99.90;;;;;;6187408;23;20020;-66
2021/12/15 19:55:20;;;;;;;27.65;9.68;;;8.70;99.90;;;;;;6186973;23;20025;-66
2021/12/15 19:57:47;;;;;;;29.02;10.88;;;8.70;99.90;;;;;;6187154;23;20005;-66
2021/12/15 20:00:18;;;;;;;23.60;10.27;;;8.70;99.90;;;;;;6187479;23;20013;-66
2021/12/15 20:02:46;;;;;;;21.60;9.48;;;8.60;99.90;;;;;;6187248;23;20087;-66
2021/12/15 20:05:19;;;;;;;32.72;11.80;;;8.60;99.90;;;;;;6187273;23;20084;-66
2021/12/15 20:07:46;;;;;;;30.05;11.10;;;8.60;99.90;;;;;;6187293;23;20055;-66
2021/12/15 20:10:14;;;;;;;19.50;9.40;;;8.60;99.90;;;;;;6187100;23;20494;-66
2021/12/15 20:12:40;;;;;;;24.70;9.68;;;8.60;99.90;;;;;;6187473;23;20016;-66
2021/12/15 20:15:11;;;;;;;24.23;10.52;;;8.50;99.90;;;;;;6186922;23;20028;-66
2021/12/15 20:17:38;;;;;;;29.60;11.20;;;8.50;99.90;;;;;;6187036;23;20024;-66
2021/12/15 20:20:10;;;;;;;35.50;13.77;;;8.50;99.90;;;;;;6186821;23;20362;-66
2021/12/15 20:22:37;;;;;;;35.75;14.48;;;8.40;99.90;;;;;;6185546;23;20013;-66
2021/12/15 20:25:05;;;;;;;34.90;13.52;;;8.30;99.90;;;;;;6185418;23;20087;-66
2021/12/15 20:27:31;;;;;;;50.63;15.70;;;8.30;99.90;;;;;;6186969;23;20017;-71
2021/12/15 20:29:59;;;;;;;36.10;15.65;;;8.30;99.90;;;;;;6185527;23;20005;-79
2021/12/15 20:32:27;;;;;;;39.03;15.10;;;8.40;99.90;;;;;;6185623;23;20451;-71
2021/12/15 20:34:55;;;;;;;33.45;15.45;;;8.40;99.90;;;;;;6186733;23;20461;-68
2021/12/15 20:37:24;;;;;;;29.63;12.75;;;8.40;99.90;;;;;;6187200;23;20071;-68
2021/12/15 20:39:57;;;;;;;33.67;13.07;;;8.40;99.90;;;;;;6186853;23;20109;-78
2021/12/15 20:42:25;;;;;;;32.65;13.73;;;8.30;99.90;;;;;;6186647;23;20013;-70
2021/12/15 20:44:52;;;;;;;29.20;11.88;;;8.20;99.90;;;;;;6186856;23;20003;-71
2021/12/15 20:47:19;;;;;;;25.95;12.52;;;8.20;99.90;;;;;;6186676;23;19997;-70
2021/12/15 20:49:49;;;;;;;31.40;13.25;;;8.20;99.90;;;;;;6186581;23;20001;-72
2021/12/15 20:52:17;;;;;;;25.95;11.63;;;8.30;99.90;;;;;;6186788;23;20041;-73
2021/12/15 20:54:46;;;;;;;32.90;13.95;;;8.20;99.90;;;;;;6186774;23;20426;-73
2021/12/15 20:57:13;;;;;;;29.67;11.95;;;8.10;99.90;;;;;;6186534;23;20049;-73
2021/12/15 20:59:41;;;;;;;28.23;11.48;;;8.10;99.90;;;;;;6186632;23;20033;-73
2021/12/15 21:02:26;;;;;;;26.05;10.20;;;8.10;99.90;;;;;;6186563;23;20340;-73
2021/12/15 21:04:55;;;;;;;28.70;11.40;;;8.20;99.90;;;;;;6186626;23;20009;-73
2021/12/15 21:07:22;;;;;;;21.48;10.10;;;8.10;99.90;;;;;;6186646;23;20009;-73
2021/12/15 21:09:53;;;;;;;24.30;9.98;;;8.10;99.90;;;;;;6186524;23;20001;-73
2021/12/15 21:12:22;;;;;;;18.98;9.38;;;8.10;99.90;;;;;;6186576;23;20032;-73
2021/12/15 21:14:53;;;;;;;27.75;11.52;;;8.10;99.90;;;;;;6186892;23;20001;-73
2021/12/15 21:17:20;;;;;;;23.13;11.70;;;8.10;99.90;;;;;;6186488;23;20343;-73
2021/12/15 21:19:47;;;;;;;27.35;10.98;;;8.00;99.90;;;;;;6184942;23;20005;-73
2021/12/15 21:22:20;;;;;;;26.27;11.60;;;8.00;99.90;;;;;;6184204;23;20017;-72
2021/12/15 21:24:47;;;;;;;30.33;12.32;;;8.00;99.90;;;;;;6185200;23;20011;-73
2021/12/15 21:27:17;;;;;;;27.98;12.73;;;8.00;99.90;;;;;;6183583;23;20084;-72
2021/12/15 21:29:50;;;;;;;28.55;13.02;;;8.00;99.90;;;;;;6185108;23;20015;-72
2021/12/15 21:32:18;;;;;;;34.90;14.77;;;8.00;99.90;;;;;;6183447;23;20013;-72
2021/12/15 21:34:45;;;;;;;28.30;12.30;;;7.90;99.90;;;;;;6185130;23;20012;-72
2021/12/15 21:37:13;;;;;;;27.40;13.23;;;7.90;99.90;;;;;;6184847;23;20027;-72
2021/12/15 21:39:40;;;;;;;28.90;13.68;;;7.90;99.90;;;;;;6184831;23;20033;-72
2021/12/15 21:42:10;;;;;;;31.42;12.93;;;7.90;99.90;;;;;;6185089;23;20053;-72
2021/12/15 21:44:37;;;;;;;31.67;13.75;;;7.90;99.90;;;;;;6183250;23;20012;-72
2021/12/15 21:47:05;;;;;;;36.33;14.27;;;7.90;99.90;;;;;;6184749;23;20039;-73
2021/12/15 21:49:32;;;;;;;27.83;12.60;;;7.90;99.90;;;;;;6158407;23;20020;-72
2021/12/15 21:51:59;;;;;;;37.78;12.45;;;7.90;99.90;;;;;;6184954;23;20296;-74
2021/12/15 21:54:27;;;;;;;26.65;11.98;;;7.90;99.90;;;;;;6183308;23;20017;-71
2021/12/15 21:56:54;;;;;;;25.77;12.07;;;7.90;99.90;;;;;;6184760;23;20017;-72
2021/12/15 21:59:21;;;;;;;27.33;11.88;;;7.90;99.90;;;;;;6184786;23;20084;-75
2021/12/15 22:01:49;;;;;;;30.77;12.73;;;7.90;99.90;;;;;;6184816;23;20005;-73
2021/12/15 22:04:17;;;;;;;31.30;12.10;;;7.90;99.90;;;;;;6184878;23;20012;-72
2021/12/15 22:06:44;;;;;;;30.92;13.20;;;7.90;99.90;;;;;;6184616;23;20034;-73
2021/12/15 22:09:14;;;;;;;29.10;12.88;;;7.90;99.90;;;;;;6184670;23;20028;-73
2021/12/15 22:11:41;;;;;;;39.17;12.18;;;7.80;99.90;;;;;;6183219;23;20316;-73
2021/12/15 22:14:09;;;;;;;33.30;12.05;;;7.80;99.90;;;;;;6184761;23;20020;-73
2021/12/15 22:16:36;;;;;;;41.83;14.02;;;7.80;99.90;;;;;;6184575;23;20069;-73
2021/12/15 22:19:07;;;;;;;28.13;12.68;;;7.80;99.90;;;;;;6184558;23;20021;-73
2021/12/15 22:21:41;;;;;;;31.73;11.30;;;7.80;99.90;;;;;;6184760;23;20008;-73
2021/12/15 22:24:18;;;;;;;23.55;12.48;;;7.80;99.90;;;;;;6184781;23;20009;-73
2021/12/15 22:26:48;;;;;;;23.25;11.10;;;7.80;99.90;;;;;;6184646;23;20009;-73
2021/12/15 22:29:25;;;;;;;27.88;12.32;;;7.80;99.90;;;;;;6184501;23;20331;-73
2021/12/15 22:31:54;;;;;;;27.15;12.80;;;7.70;99.90;;;;;;6184527;23;20057;-73
2021/12/15 22:34:21;;;;;;;25.13;11.73;;;7.70;99.90;;;;;;6184656;23;20005;-72
2021/12/15 22:36:48;;;;;;;25.90;10.95;;;7.70;99.90;;;;;;6184638;23;20023;-75
2021/12/15 22:39:15;;;;;;;28.77;10.90;;;7.70;99.90;;;;;;6184399;23;20080;-72
2021/12/15 22:41:45;;;;;;;23.00;11.02;;;7.60;99.90;;;;;;6184620;23;20021;-73
2021/12/15 22:44:12;;;;;;;30.02;12.13;;;7.60;99.90;;;;;;6184647;23;20331;-73
2021/12/15 22:46:42;;;;;;;29.77;12.07;;;7.70;99.90;;;;;;6184657;23;20015;-73
2021/12/15 22:49:09;;;;;;;29.13;11.45;;;7.70;99.90;;;;;;6183107;23;20013;-73
2021/12/15 22:51:39;;;;;;;26.15;11.15;;;7.70;99.90;;;;;;6184466;23;20008;-73
2021/12/15 22:54:07;;;;;;;27.80;12.38;;;7.70;99.90;;;;;;6184531;23;20012;-73
2021/12/15 22:56:34;;;;;;;30.40;11.95;;;7.60;99.90;;;;;;6182725;23;20380;-73
2021/12/15 22:59:01;;;;;;;23.27;10.02;;;7.60;99.90;;;;;;6184908;23;20001;-72
2021/12/15 23:01:35;;;;;;;37.88;12.27;;;7.60;99.90;;;;;;6186550;23;20076;-73
2021/12/15 23:04:09;;;;;;;36.00;10.93;;;7.60;99.90;;;;;;6185055;23;20005;-72
2021/12/15 23:06:46;;;;;;;26.75;11.73;;;7.60;99.90;;;;;;6186319;23;20029;-72
2021/12/15 23:09:15;;;;;;;24.05;9.95;;;7.60;99.90;;;;;;6186372;23;20009;-69
2021/12/15 23:12:03;;;;;;;26.48;10.90;;;7.60;99.90;;;;;;6186365;23;20040;-70
2021/12/15 23:14:31;;;;;;;24.42;9.75;;;7.60;99.90;;;;;;6186145;23;20016;-70
2021/12/15 23:16:58;;;;;;;26.80;9.32;;;7.60;99.90;;;;;;6184571;23;20092;-70
2021/12/15 23:19:26;;;;;;;30.05;10.88;;;7.60;99.90;;;;;;6186450;23;20339;-67
2021/12/15 23:21:55;;;;;;;21.77;9.18;;;7.60;99.90;;;;;;6186224;23;20320;-67
2021/12/15 23:24:22;;;;;;;23.08;9.25;;;7.60;99.90;;;;;;6186159;23;20005;-67
2021/12/15 23:26:56;;;;;;;31.98;9.50;;;7.60;99.90;;;;;;6186047;23;20037;-67
2021/12/15 23:29:23;;;;;;;31.40;8.65;;;7.60;99.90;;;;;;6134846;23;20012;-67
2021/12/15 23:31:50;;;;;;;25.23;9.80;;;7.60;99.90;;;;;;6185958;23;20028;-68
2021/12/15 23:34:17;;;;;;;29.08;9.10;;;7.60;99.90;;;;;;6184403;23;20103;-68
2021/12/15 23:36:44;;;;;;;21.83;7.47;;;7.70;99.90;;;;;;6186089;23;20021;-67
